createdAt,value
2023-04-01T00:00:39.376Z,7.45
2023-04-01T00:01:39.314Z,7.42
2023-04-01T00:02:39.391Z,7.43
2023-04-01T00:03:39.430Z,7.45
2023-04-01T00:04:39.347Z,7.47
2023-04-01T00:05:39.262Z,7.48
2023-04-01T00:06:39.247Z,7.50
2023-04-01T00:07:39.274Z,7.50
2023-04-01T00:08:39.220Z,7.47
2023-04-01T00:09:39.213Z,7.43
2023-04-01T00:10:39.194Z,7.43
2023-04-01T00:11:39.186Z,7.42
2023-04-01T00:12:39.172Z,7.42
2023-04-01T00:13:39.178Z,7.40
2023-04-01T00:14:39.188Z,7.42
2023-04-01T00:15:39.140Z,7.42
2023-04-01T00:16:39.158Z,7.45
2023-04-01T00:17:39.138Z,7.47
2023-04-01T00:18:39.162Z,7.48
2023-04-01T00:19:39.104Z,7.48
2023-04-01T00:20:39.057Z,7.50
2023-04-01T00:21:39.061Z,7.51
2023-04-01T00:22:39.054Z,7.53
2023-04-01T00:23:39.051Z,7.56
2023-04-01T00:24:39.051Z,7.56
2023-04-01T00:25:39.028Z,7.56
2023-04-01T00:26:39.001Z,7.54
2023-04-01T00:27:38.964Z,7.54
2023-04-01T00:28:38.987Z,7.54
2023-04-01T00:29:38.963Z,7.56
2023-04-01T00:30:38.938Z,7.57
2023-04-01T00:31:38.980Z,7.58
2023-04-01T00:32:38.987Z,7.57
2023-04-01T00:33:38.910Z,7.54
2023-04-01T00:34:38.920Z,7.56
2023-04-01T00:35:38.864Z,7.54
2023-04-01T00:36:38.913Z,7.51
2023-04-01T00:37:38.861Z,7.50
2023-04-01T00:38:38.827Z,7.53
2023-04-01T00:39:38.848Z,7.54
2023-04-01T00:40:38.803Z,7.57
2023-04-01T00:41:38.915Z,7.61
2023-04-01T00:42:38.789Z,7.66
2023-04-01T00:43:38.768Z,7.67
2023-04-01T00:44:38.789Z,7.70
2023-04-01T00:45:38.759Z,7.73
2023-04-01T00:46:38.756Z,7.76
2023-04-01T00:47:38.739Z,7.79
2023-04-01T00:48:38.701Z,7.82
2023-04-01T00:49:38.725Z,7.82
2023-04-01T00:50:38.690Z,7.85
2023-04-01T00:51:38.701Z,7.83
2023-04-01T00:52:38.647Z,7.85
2023-04-01T00:53:38.660Z,7.87
2023-04-01T00:54:38.614Z,7.90
2023-04-01T00:55:38.617Z,7.93
2023-04-01T00:56:38.628Z,7.94
2023-04-01T00:57:38.601Z,7.97
2023-04-01T00:58:38.576Z,7.98
2023-04-01T00:59:38.585Z,7.98
2023-04-01T01:00:38.617Z,7.98
2023-04-01T01:01:38.571Z,7.98
2023-04-01T01:02:38.631Z,7.98
2023-04-01T01:03:38.522Z,7.98
2023-04-01T01:04:38.495Z,8.00
2023-04-01T01:05:48.608Z,7.98
2023-04-01T01:06:38.499Z,7.97
2023-04-01T01:07:38.495Z,7.97
2023-04-01T01:08:38.453Z,7.95
2023-04-01T01:09:38.418Z,7.95
2023-04-01T01:10:38.419Z,7.94
2023-04-01T01:11:43.800Z,7.93
2023-04-01T01:12:38.420Z,7.93
2023-04-01T01:13:38.386Z,7.95
2023-04-01T01:14:38.351Z,7.97
2023-04-01T01:15:38.346Z,7.94
2023-04-01T01:16:38.359Z,7.90
2023-04-01T01:17:38.371Z,7.85
2023-04-01T01:18:38.308Z,7.82
2023-04-01T01:19:38.323Z,7.76
2023-04-01T01:20:38.277Z,7.73
2023-04-01T01:21:38.255Z,7.70
2023-04-01T01:22:38.281Z,7.66
2023-04-01T01:23:38.237Z,7.63
2023-04-01T01:24:38.224Z,7.60
2023-04-01T01:25:38.228Z,7.61
2023-04-01T01:26:38.199Z,7.60
2023-04-01T01:27:38.180Z,7.58
2023-04-01T01:28:38.215Z,7.57
2023-04-01T01:29:38.163Z,7.54
2023-04-01T01:30:38.169Z,7.48
2023-04-01T01:31:38.192Z,7.40
2023-04-01T01:32:38.160Z,7.36
2023-04-01T01:33:38.131Z,7.33
2023-04-01T01:34:38.107Z,7.31
2023-04-01T01:35:38.128Z,7.28
2023-04-01T01:36:38.059Z,7.23
2023-04-01T01:37:38.047Z,7.18
2023-04-01T01:38:38.089Z,7.17
2023-04-01T01:39:38.028Z,7.10
2023-04-01T01:40:38.031Z,7.00
2023-04-01T01:41:37.992Z,6.96
2023-04-01T01:42:37.995Z,6.93
2023-04-01T01:43:38.010Z,6.92
2023-04-01T01:44:37.966Z,6.89
2023-04-01T01:45:37.991Z,6.92
2023-04-01T01:46:38.047Z,6.93
2023-04-01T01:47:37.946Z,6.93
2023-04-01T01:48:37.908Z,6.95
2023-04-01T01:49:37.922Z,6.97
2023-04-01T01:50:37.896Z,6.97
2023-04-01T01:51:37.862Z,6.97
2023-04-01T01:52:37.858Z,7.00
2023-04-01T01:53:37.842Z,7.02
2023-04-01T01:54:37.851Z,7.00
2023-04-01T01:55:37.824Z,6.97
2023-04-01T01:56:37.810Z,6.93
2023-04-01T01:57:37.786Z,6.93
2023-04-01T01:58:37.792Z,6.89
2023-04-01T01:59:37.802Z,6.89
2023-04-01T02:00:37.749Z,6.89
2023-04-01T02:01:37.801Z,6.92
2023-04-01T02:02:37.796Z,6.92
2023-04-01T02:03:37.703Z,6.93
2023-04-01T02:04:37.732Z,6.95
2023-04-01T02:05:37.695Z,6.96
2023-04-01T02:06:37.691Z,6.97
2023-04-01T02:07:37.658Z,6.99
2023-04-01T02:08:37.639Z,7.00
2023-04-01T02:09:37.616Z,7.02
2023-04-01T02:10:37.625Z,7.03
2023-04-01T02:11:37.620Z,7.03
2023-04-01T02:12:37.610Z,7.03
2023-04-01T02:13:37.622Z,7.03
2023-04-01T02:14:37.566Z,7.03
2023-04-01T02:15:37.592Z,6.99
2023-04-01T02:16:37.545Z,6.95
2023-04-01T02:17:37.528Z,6.95
2023-04-01T02:18:37.563Z,6.93
2023-04-01T02:19:37.534Z,6.89
2023-04-01T02:20:37.480Z,6.85
2023-04-01T02:21:37.562Z,6.84
2023-04-01T02:22:37.452Z,6.82
2023-04-01T02:23:37.458Z,6.82
2023-04-01T02:24:37.460Z,6.79
2023-04-01T02:25:37.431Z,6.77
2023-04-01T02:26:37.393Z,6.79
2023-04-01T02:27:37.404Z,6.77
2023-04-01T02:28:37.457Z,6.77
2023-04-01T02:29:37.366Z,6.75
2023-04-01T02:30:37.355Z,6.77
2023-04-01T02:31:37.380Z,6.72
2023-04-01T02:32:37.381Z,6.70
2023-04-01T02:33:37.309Z,6.69
2023-04-01T02:34:37.301Z,6.70
2023-04-01T02:35:37.307Z,6.70
2023-04-01T02:36:37.366Z,6.74
2023-04-01T02:37:39.159Z,6.74
2023-04-01T02:38:37.243Z,6.75
2023-04-01T02:39:37.255Z,6.74
2023-04-01T02:40:37.294Z,6.72
2023-04-01T02:41:37.207Z,6.67
2023-04-01T02:42:37.195Z,6.69
2023-04-01T02:43:37.180Z,6.69
2023-04-01T02:44:37.198Z,6.72
2023-04-01T02:45:37.159Z,6.74
2023-04-01T02:46:37.164Z,6.77
2023-04-01T02:47:37.193Z,6.77
2023-04-01T02:48:37.126Z,6.79
2023-04-01T02:49:37.129Z,6.81
2023-04-01T02:50:37.081Z,6.82
2023-04-01T02:51:37.062Z,6.82
2023-04-01T02:52:37.057Z,6.82
2023-04-01T02:53:37.040Z,6.82
2023-04-01T02:54:37.070Z,6.85
2023-04-01T02:55:37.025Z,6.85
2023-04-01T02:56:37.006Z,6.88
2023-04-01T02:57:36.985Z,6.87
2023-04-01T02:58:37.031Z,6.89
2023-04-01T02:59:36.966Z,6.88
2023-04-01T03:00:36.978Z,6.88
2023-04-01T03:01:36.966Z,6.88
2023-04-01T03:02:37.061Z,6.82
2023-04-01T03:03:37.004Z,6.79
2023-04-01T03:04:36.904Z,6.74
2023-04-01T03:05:36.907Z,6.69
2023-04-01T03:06:36.882Z,6.66
2023-04-01T03:07:36.883Z,6.62
2023-04-01T03:08:36.877Z,6.59
2023-04-01T03:09:36.865Z,6.56
2023-04-01T03:10:36.828Z,6.54
2023-04-01T03:11:36.810Z,6.57
2023-04-01T03:12:36.796Z,6.60
2023-04-01T03:13:36.808Z,6.60
2023-04-01T03:14:36.792Z,6.59
2023-04-01T03:15:36.762Z,6.60
2023-04-01T03:16:36.793Z,6.59
2023-04-01T03:17:36.788Z,6.57
2023-04-01T03:18:36.709Z,6.56
2023-04-01T03:19:36.688Z,6.57
2023-04-01T03:20:36.760Z,6.59
2023-04-01T03:21:36.726Z,6.57
2023-04-01T03:22:36.659Z,6.59
2023-04-01T03:23:36.655Z,6.59
2023-04-01T03:24:36.640Z,6.60
2023-04-01T03:25:36.681Z,6.62
2023-04-01T03:26:36.624Z,6.62
2023-04-01T03:27:36.592Z,6.60
2023-04-01T03:28:36.588Z,6.63
2023-04-01T03:29:36.636Z,6.63
2023-04-01T03:30:36.663Z,6.64
2023-04-01T03:31:36.542Z,6.63
2023-04-01T03:32:36.564Z,6.64
2023-04-01T03:33:36.519Z,6.66
2023-04-01T03:34:36.498Z,6.66
2023-04-01T03:35:36.518Z,6.64
2023-04-01T03:36:36.510Z,6.63
2023-04-01T03:37:36.473Z,6.63
2023-04-01T03:38:36.509Z,6.62
2023-04-01T03:39:36.457Z,6.60
2023-04-01T03:40:36.437Z,6.66
2023-04-01T03:41:36.407Z,6.69
2023-04-01T03:42:36.500Z,6.74
2023-04-01T03:43:36.380Z,6.77
2023-04-01T03:44:36.371Z,6.78
2023-04-01T03:45:36.387Z,6.79
2023-04-01T03:46:36.479Z,6.79
2023-04-01T03:47:36.399Z,6.79
2023-04-01T03:48:36.305Z,6.79
2023-04-01T03:49:36.310Z,6.79
2023-04-01T03:50:36.316Z,6.79
2023-04-01T03:51:36.295Z,6.78
2023-04-01T03:52:36.264Z,6.79
2023-04-01T03:53:36.240Z,6.79
2023-04-01T03:54:36.231Z,6.75
2023-04-01T03:55:36.212Z,6.66
2023-04-01T03:56:36.233Z,6.60
2023-04-01T03:57:36.234Z,6.56
2023-04-01T03:58:36.195Z,6.54
2023-04-01T03:59:36.168Z,6.52
2023-04-01T04:00:36.175Z,6.54
2023-04-01T04:01:36.157Z,6.54
2023-04-01T04:02:36.275Z,6.54
2023-04-01T04:03:36.199Z,6.59
2023-04-01T04:04:36.140Z,6.59
2023-04-01T04:05:36.335Z,6.60
2023-04-01T04:06:36.073Z,6.62
2023-04-01T04:07:36.107Z,6.63
2023-04-01T04:08:36.115Z,6.64
2023-04-01T04:09:36.042Z,6.64
2023-04-01T04:10:36.036Z,6.66
2023-04-01T04:11:36.013Z,6.66
2023-04-01T04:12:36.044Z,6.67
2023-04-01T04:13:35.984Z,6.66
2023-04-01T04:14:35.957Z,6.67
2023-04-01T04:15:35.963Z,6.69
2023-04-01T04:16:35.965Z,6.69
2023-04-01T04:17:35.962Z,6.69
2023-04-01T04:18:35.917Z,6.70
2023-04-01T04:19:35.964Z,6.72
2023-04-01T04:20:35.897Z,6.72
2023-04-01T04:21:35.894Z,6.72
2023-04-01T04:22:35.860Z,6.74
2023-04-01T04:23:35.844Z,6.77
2023-04-01T04:24:35.856Z,6.78
2023-04-01T04:25:35.840Z,6.78
2023-04-01T04:26:35.835Z,6.79
2023-04-01T04:27:35.797Z,6.79
2023-04-01T04:28:35.795Z,6.78
2023-04-01T04:29:35.808Z,6.82
2023-04-01T04:30:35.756Z,6.82
2023-04-01T04:31:35.764Z,6.82
2023-04-01T04:32:35.795Z,6.84
2023-04-01T04:33:35.726Z,6.84
2023-04-01T04:34:35.741Z,6.84
2023-04-01T04:35:36.033Z,6.84
2023-04-01T04:36:35.668Z,6.79
2023-04-01T04:37:35.656Z,6.74
2023-04-01T04:38:35.687Z,6.69
2023-04-01T04:39:35.676Z,6.64
2023-04-01T04:40:35.623Z,6.60
2023-04-01T04:41:37.524Z,6.59
2023-04-01T04:42:35.613Z,6.60
2023-04-01T04:43:35.609Z,6.64
2023-04-01T04:44:35.601Z,6.67
2023-04-01T04:45:35.741Z,6.70
2023-04-01T04:46:35.566Z,6.72
2023-04-01T04:47:35.562Z,6.70
2023-04-01T04:48:35.524Z,6.67
2023-04-01T04:49:35.518Z,6.64
2023-04-01T04:50:35.490Z,6.64
2023-04-01T04:51:35.488Z,6.64
2023-04-01T04:52:35.463Z,6.62
2023-04-01T04:53:35.478Z,6.60
2023-04-01T04:54:35.491Z,6.62
2023-04-01T04:55:35.613Z,6.60
2023-04-01T04:56:35.414Z,6.64
2023-04-01T04:57:35.431Z,6.66
2023-04-01T04:58:35.386Z,6.67
2023-04-01T04:59:35.401Z,6.69
2023-04-01T05:00:35.365Z,6.74
2023-04-01T05:01:35.423Z,6.75
2023-04-01T05:02:35.371Z,6.77
2023-04-01T05:03:35.590Z,6.77
2023-04-01T05:04:35.336Z,6.75
2023-04-01T05:05:35.325Z,6.75
2023-04-01T05:06:35.314Z,6.69
2023-04-01T05:07:35.272Z,6.64
2023-04-01T05:08:35.259Z,6.67
2023-04-01T05:09:35.265Z,6.66
2023-04-01T05:10:35.233Z,6.67
2023-04-01T05:11:35.255Z,6.66
2023-04-01T05:12:35.200Z,6.69
2023-04-01T05:13:35.190Z,6.70
2023-04-01T05:14:35.183Z,6.72
2023-04-01T05:15:35.547Z,6.74
2023-04-01T05:16:35.169Z,6.72
2023-04-01T05:17:35.230Z,6.72
2023-04-01T05:18:35.137Z,6.70
2023-04-01T05:19:35.117Z,6.72
2023-04-01T05:20:35.099Z,6.74
2023-04-01T05:21:35.095Z,6.72
2023-04-01T05:22:35.113Z,6.74
2023-04-01T05:23:35.061Z,6.74
2023-04-01T05:24:35.043Z,6.78
2023-04-01T05:25:35.348Z,6.81
2023-04-01T05:26:35.019Z,6.82
2023-04-01T05:27:35.021Z,6.82
2023-04-01T05:28:34.990Z,6.82
2023-04-01T05:29:34.989Z,6.84
2023-04-01T05:30:34.991Z,6.82
2023-04-01T05:31:35.035Z,6.84
2023-04-01T05:32:35.049Z,6.84
2023-04-01T05:33:34.917Z,6.85
2023-04-01T05:34:34.931Z,6.81
2023-04-01T05:35:35.211Z,6.82
2023-04-01T05:36:34.918Z,6.85
2023-04-01T05:37:34.872Z,6.85
2023-04-01T05:38:34.975Z,6.85
2023-04-01T05:39:34.849Z,6.87
2023-04-01T05:40:34.834Z,6.87
2023-04-01T05:41:34.837Z,6.89
2023-04-01T05:42:36.748Z,6.88
2023-04-01T05:43:34.816Z,6.89
2023-04-01T05:44:34.788Z,6.89
2023-04-01T05:45:35.068Z,6.88
2023-04-01T05:46:34.877Z,6.89
2023-04-01T05:47:34.795Z,6.92
2023-04-01T05:48:34.719Z,6.93
2023-04-01T05:49:34.751Z,6.93
2023-04-01T05:50:34.722Z,6.93
2023-04-01T05:51:34.686Z,6.95
2023-04-01T05:52:34.672Z,6.93
2023-04-01T05:53:34.696Z,6.93
2023-04-01T05:54:34.646Z,6.92
2023-04-01T05:55:34.926Z,6.92
2023-04-01T05:57:05.321Z,6.89
2023-04-01T05:57:34.685Z,6.88
2023-04-01T05:58:34.607Z,6.93
2023-04-01T05:59:34.624Z,6.93
2023-04-01T06:00:34.588Z,6.96
2023-04-01T06:01:34.556Z,6.95
2023-04-01T06:02:34.615Z,6.96
2023-04-01T06:03:34.638Z,6.96
2023-04-01T06:04:34.533Z,6.97
2023-04-01T06:05:34.674Z,6.99
2023-04-01T06:06:34.472Z,7.02
2023-04-01T06:07:34.529Z,7.02
2023-04-01T06:08:34.481Z,7.06
2023-04-01T06:09:34.450Z,7.06
2023-04-01T06:10:34.434Z,7.06
2023-04-01T06:11:34.419Z,7.10
2023-04-01T06:12:34.427Z,7.11
2023-04-01T06:13:34.394Z,7.13
2023-04-01T06:14:34.402Z,7.13
2023-04-01T06:15:34.638Z,7.14
2023-04-01T06:16:34.369Z,7.14
2023-04-01T06:17:34.384Z,7.15
2023-04-01T06:18:34.391Z,7.17
2023-04-01T06:19:34.340Z,7.15
2023-04-01T06:20:34.312Z,7.15
2023-04-01T06:21:34.313Z,7.14
2023-04-01T06:22:34.287Z,7.17
2023-04-01T06:23:34.274Z,7.18
2023-04-01T06:24:34.255Z,7.20
2023-04-01T06:25:34.446Z,7.18
2023-04-01T06:26:34.213Z,7.21
2023-04-01T06:27:34.306Z,7.24
2023-04-01T06:28:34.224Z,7.25
2023-04-01T06:29:34.195Z,7.29
2023-04-01T06:30:34.176Z,7.29
2023-04-01T06:31:34.240Z,7.29
2023-04-01T06:32:34.201Z,7.31
2023-04-01T06:33:34.127Z,7.31
2023-04-01T06:34:34.113Z,7.31
2023-04-01T06:35:34.284Z,7.29
2023-04-01T06:36:34.125Z,7.31
2023-04-01T06:37:34.110Z,7.32
2023-04-01T06:38:34.067Z,7.33
2023-04-01T06:39:34.073Z,7.36
2023-04-01T06:40:34.047Z,7.35
2023-04-01T06:41:34.018Z,7.36
2023-04-01T06:42:34.052Z,7.39
2023-04-01T06:43:33.991Z,7.43
2023-04-01T06:44:34.672Z,7.45
2023-04-01T06:45:34.178Z,7.48
2023-04-01T06:46:33.959Z,7.53
2023-04-01T06:47:33.990Z,7.56
2023-04-01T06:48:33.970Z,7.58
2023-04-01T06:49:33.947Z,7.63
2023-04-01T06:50:33.901Z,7.66
2023-04-01T06:51:33.912Z,7.67
2023-04-01T06:52:33.880Z,7.70
2023-04-01T06:53:33.875Z,7.73
2023-04-01T06:54:33.893Z,7.73
2023-04-01T06:55:34.163Z,7.76
2023-04-01T06:56:33.830Z,7.77
2023-04-01T06:57:33.837Z,7.77
2023-04-01T06:58:33.809Z,7.82
2023-04-01T06:59:33.790Z,7.83
2023-04-01T07:00:33.824Z,7.88
2023-04-01T07:01:33.845Z,7.93
2023-04-01T07:02:33.761Z,7.94
2023-04-01T07:03:33.735Z,7.94
2023-04-01T07:04:33.769Z,7.94
2023-04-01T07:05:33.990Z,7.95
2023-04-01T07:06:33.721Z,7.97
2023-04-01T07:07:33.698Z,8.01
2023-04-01T07:08:33.658Z,8.03
2023-04-01T07:09:33.675Z,8.08
2023-04-01T07:10:33.636Z,8.10
2023-04-01T07:11:33.636Z,8.13
2023-04-01T07:12:33.649Z,8.16
2023-04-01T07:13:33.620Z,8.20
2023-04-01T07:14:33.596Z,8.24
2023-04-01T07:17:01.270Z,8.28
2023-04-01T07:17:06.633Z,8.33
2023-04-01T07:18:06.633Z,8.36
2023-04-01T07:19:06.575Z,8.37
2023-04-01T07:20:06.606Z,8.42
2023-04-01T07:21:06.543Z,8.45
2023-04-01T07:22:06.561Z,8.51
2023-04-01T07:23:06.529Z,8.55
2023-04-01T07:24:06.520Z,8.61
2023-04-01T07:25:06.512Z,8.67
2023-04-01T07:26:06.505Z,8.71
2023-04-01T07:27:06.467Z,8.79
2023-04-01T07:28:06.448Z,8.82
2023-04-01T07:29:06.468Z,8.85
2023-04-01T07:30:06.429Z,8.89
2023-04-01T07:31:37.018Z,8.92
2023-04-01T07:32:06.406Z,8.99
2023-04-01T07:33:06.440Z,9.04
2023-04-01T07:34:06.383Z,9.11
2023-04-01T07:35:06.404Z,9.18
2023-04-01T07:36:06.414Z,9.21
2023-04-01T07:37:06.357Z,9.26
2023-04-01T07:38:06.327Z,9.32
2023-04-01T07:39:06.308Z,9.37
2023-04-01T07:40:06.334Z,9.40
2023-04-01T07:41:06.278Z,9.44
2023-04-01T07:42:06.297Z,9.46
2023-04-01T07:43:06.258Z,9.48
2023-04-01T07:44:06.272Z,9.50
2023-04-01T07:45:06.267Z,9.51
2023-04-01T07:46:06.243Z,9.56
2023-04-01T07:47:06.231Z,9.61
2023-04-01T07:48:06.324Z,9.64
2023-04-01T07:49:06.212Z,9.68
2023-04-01T07:50:06.176Z,9.68
2023-04-01T07:51:06.165Z,9.73
2023-04-01T07:52:06.158Z,9.76
2023-04-01T07:53:06.141Z,9.77
2023-04-01T07:54:06.140Z,9.79
2023-04-01T07:55:06.109Z,9.80
2023-04-01T07:56:06.080Z,9.79
2023-04-01T07:57:06.116Z,9.79
2023-04-01T07:58:06.081Z,9.79
2023-04-01T07:59:06.080Z,9.76
2023-04-01T08:00:06.038Z,9.74
2023-04-01T08:01:06.029Z,9.74
2023-04-01T08:02:06.008Z,9.73
2023-04-01T08:03:06.116Z,9.69
2023-04-01T08:04:06.387Z,9.66
2023-04-01T08:05:06.016Z,9.65
2023-04-01T08:06:05.948Z,9.62
2023-04-01T08:07:05.934Z,9.64
2023-04-01T08:08:05.932Z,9.62
2023-04-01T08:09:05.935Z,9.61
2023-04-01T08:10:05.898Z,9.61
2023-04-01T08:11:05.885Z,9.62
2023-04-01T08:12:05.924Z,9.61
2023-04-01T08:13:05.866Z,9.59
2023-04-01T08:14:05.855Z,9.61
2023-04-01T08:15:05.867Z,9.62
2023-04-01T08:16:05.825Z,9.64
2023-04-01T08:17:05.812Z,9.62
2023-04-01T08:18:05.865Z,9.65
2023-04-01T08:19:05.808Z,9.65
2023-04-01T08:20:05.779Z,9.68
2023-04-01T08:21:05.755Z,9.69
2023-04-01T08:22:05.754Z,9.69
2023-04-01T08:23:05.765Z,9.72
2023-04-01T08:24:05.713Z,9.73
2023-04-01T08:25:05.734Z,9.73
2023-04-01T08:26:05.726Z,9.74
2023-04-01T08:27:05.661Z,9.74
2023-04-01T08:28:05.664Z,9.77
2023-04-01T08:29:05.663Z,9.79
2023-04-01T08:30:05.632Z,9.80
2023-04-01T08:31:05.650Z,9.82
2023-04-01T08:32:05.630Z,9.84
2023-04-01T08:33:05.608Z,9.86
2023-04-01T08:34:05.587Z,9.89
2023-04-01T08:35:05.569Z,9.91
2023-04-01T08:36:05.600Z,9.94
2023-04-01T08:37:05.578Z,9.94
2023-04-01T08:38:05.522Z,9.95
2023-04-01T08:39:05.561Z,9.98
2023-04-01T08:40:05.507Z,10.02
2023-04-01T08:41:05.481Z,10.10
2023-04-01T08:42:05.485Z,10.15
2023-04-01T08:43:05.443Z,10.19
2023-04-01T08:44:05.453Z,10.25
2023-04-01T08:45:05.421Z,10.35
2023-04-01T08:46:05.498Z,10.44
2023-04-01T08:47:05.438Z,10.59
2023-04-01T08:48:05.449Z,10.69
2023-04-01T08:49:05.371Z,10.79
2023-04-01T08:50:05.363Z,10.89
2023-04-01T08:51:06.653Z,10.93
2023-04-01T08:52:05.340Z,10.96
2023-04-01T08:53:05.345Z,11.00
2023-04-01T08:54:05.310Z,11.04
2023-04-01T08:55:05.278Z,11.11
2023-04-01T08:56:05.277Z,11.22
2023-04-01T08:57:05.322Z,11.27
2023-04-01T08:58:05.266Z,11.36
2023-04-01T08:59:05.233Z,11.43
2023-04-01T09:00:05.214Z,11.40
2023-04-01T09:01:05.214Z,11.47
2023-04-01T09:02:05.239Z,11.55
2023-04-01T09:03:05.351Z,11.62
2023-04-01T09:04:05.198Z,11.62
2023-04-01T09:05:05.154Z,11.63
2023-04-01T09:06:05.165Z,11.66
2023-04-01T09:07:05.163Z,11.68
2023-04-01T09:08:05.118Z,11.65
2023-04-01T09:09:05.111Z,11.68
2023-04-01T09:10:05.112Z,11.69
2023-04-01T09:11:05.066Z,11.69
2023-04-01T09:12:05.153Z,11.70
2023-04-01T09:13:05.038Z,11.70
2023-04-01T09:14:05.032Z,11.65
2023-04-01T09:15:05.051Z,11.62
2023-04-01T09:16:05.056Z,11.57
2023-04-01T09:17:04.986Z,11.59
2023-04-01T09:18:05.042Z,11.62
2023-04-01T09:19:05.170Z,11.59
2023-04-01T09:20:04.980Z,11.60
2023-04-01T09:21:04.989Z,11.60
2023-04-01T09:22:04.938Z,11.60
2023-04-01T09:23:04.920Z,11.63
2023-04-01T09:24:04.903Z,11.68
2023-04-01T09:25:04.918Z,11.72
2023-04-01T09:26:04.868Z,11.80
2023-04-01T09:27:04.884Z,11.84
2023-04-01T09:28:04.865Z,11.88
2023-04-01T09:29:04.838Z,11.95
2023-04-01T09:30:04.866Z,11.99
2023-04-01T09:31:04.852Z,12.00
2023-04-01T09:32:04.827Z,12.00
2023-04-01T09:33:04.807Z,12.03
2023-04-01T09:34:04.791Z,12.06
2023-04-01T09:35:04.752Z,12.09
2023-04-01T09:36:04.766Z,12.12
2023-04-01T09:37:04.750Z,12.15
2023-04-01T09:38:04.717Z,12.17
2023-04-01T09:39:04.702Z,12.20
2023-04-01T09:40:04.689Z,12.25
2023-04-01T09:41:04.716Z,12.28
2023-04-01T09:42:04.704Z,12.29
2023-04-01T09:43:04.644Z,12.31
2023-04-01T09:44:04.648Z,12.31
2023-04-01T09:45:04.644Z,12.37
2023-04-01T09:46:04.646Z,12.40
2023-04-01T09:47:04.626Z,12.42
2023-04-01T09:48:04.636Z,12.46
2023-04-01T09:49:04.573Z,12.49
2023-04-01T09:50:04.567Z,12.57
2023-04-01T09:51:04.546Z,12.60
2023-04-01T09:52:04.569Z,12.62
2023-04-01T09:53:04.538Z,12.70
2023-04-01T09:54:04.497Z,12.79
2023-04-01T09:55:04.557Z,12.91
2023-04-01T09:56:04.487Z,12.97
2023-04-01T09:57:04.512Z,13.04
2023-04-01T09:58:04.466Z,13.15
2023-04-01T09:59:04.429Z,13.20
2023-04-01T10:00:04.428Z,13.30
2023-04-01T10:01:04.416Z,13.39
2023-04-01T10:02:04.504Z,13.52
2023-04-01T10:03:04.443Z,13.67
2023-04-01T10:04:04.364Z,13.86
2023-04-01T10:05:04.384Z,14.08
2023-04-01T10:06:04.383Z,14.17
2023-04-01T10:07:04.356Z,14.28
2023-04-01T10:08:04.325Z,14.30
2023-04-01T10:09:04.308Z,14.23
2023-04-01T10:10:04.314Z,14.18
2023-04-01T10:11:04.298Z,14.11
2023-04-01T10:12:04.300Z,13.99
2023-04-01T10:13:04.262Z,13.96
2023-04-01T10:14:04.241Z,13.96
2023-04-01T10:15:04.226Z,13.93
2023-04-01T10:16:04.257Z,13.87
2023-04-01T10:17:04.212Z,13.87
2023-04-01T10:18:04.240Z,13.90
2023-04-01T10:19:04.162Z,13.86
2023-04-01T10:20:04.161Z,13.87
2023-04-01T10:21:04.141Z,13.90
2023-04-01T10:22:04.172Z,13.87
2023-04-01T10:23:04.140Z,13.85
2023-04-01T10:24:04.104Z,13.81
2023-04-01T10:25:06.154Z,13.75
2023-04-01T10:26:04.069Z,13.74
2023-04-01T10:27:04.050Z,13.70
2023-04-01T10:28:04.074Z,13.67
2023-04-01T10:29:04.100Z,13.67
2023-04-01T10:30:04.011Z,13.67
2023-04-01T10:31:04.003Z,13.63
2023-04-01T10:32:04.029Z,13.57
2023-04-01T10:33:04.028Z,13.57
2023-04-01T10:34:03.968Z,13.60
2023-04-01T10:35:03.983Z,13.62
2023-04-01T10:36:04.009Z,13.62
2023-04-01T10:37:03.919Z,13.62
2023-04-01T10:38:03.931Z,13.63
2023-04-01T10:39:03.882Z,13.63
2023-04-01T10:40:03.879Z,13.68
2023-04-01T10:41:03.901Z,13.71
2023-04-01T10:42:03.848Z,13.72
2023-04-01T10:43:03.854Z,13.75
2023-04-01T10:44:03.841Z,13.78
2023-04-01T10:45:03.820Z,13.83
2023-04-01T10:46:03.849Z,13.87
2023-04-01T10:47:03.883Z,13.89
2023-04-01T10:48:03.858Z,13.92
2023-04-01T10:49:03.806Z,13.99
2023-04-01T10:50:03.811Z,14.07
2023-04-01T10:51:03.763Z,14.30
2023-04-01T10:52:03.738Z,14.43
2023-04-01T10:53:05.474Z,14.51
2023-04-01T10:54:03.698Z,14.66
2023-04-01T10:55:03.697Z,14.77
2023-04-01T10:56:03.727Z,14.79
2023-04-01T10:57:03.684Z,14.86
2023-04-01T10:58:03.724Z,15.11
2023-04-01T10:59:03.690Z,15.22
2023-04-01T11:00:03.604Z,15.27
2023-04-01T11:01:03.686Z,15.27
2023-04-01T11:02:11.363Z,15.28
2023-04-01T11:03:03.646Z,15.31
2023-04-01T11:04:03.581Z,15.29
2023-04-01T11:05:03.541Z,15.31
2023-04-01T11:06:03.524Z,15.24
2023-04-01T11:07:03.506Z,15.19
2023-04-01T11:08:06.540Z,15.03
2023-04-01T11:09:03.520Z,15.00
2023-04-01T11:10:03.492Z,14.99
2023-04-01T11:11:03.457Z,14.99
2023-04-01T11:12:03.482Z,15.03
2023-04-01T11:13:03.441Z,15.02
2023-04-01T11:14:03.429Z,15.00
2023-04-01T11:15:03.432Z,14.99
2023-04-01T11:16:03.399Z,14.99
2023-04-01T11:17:03.386Z,14.97
2023-04-01T11:18:03.495Z,14.91
2023-04-01T11:19:03.394Z,14.82
2023-04-01T11:20:03.352Z,14.73
2023-04-01T11:21:03.330Z,14.70
2023-04-01T11:22:03.326Z,14.68
2023-04-01T11:23:03.326Z,14.60
2023-04-01T11:24:05.540Z,14.55
2023-04-01T11:25:03.284Z,14.54
2023-04-01T11:26:03.286Z,14.51
2023-04-01T11:27:03.368Z,14.50
2023-04-01T11:28:03.260Z,14.48
2023-04-01T11:29:03.238Z,14.48
2023-04-01T11:30:03.234Z,14.48
2023-04-01T11:31:03.237Z,14.45
2023-04-01T11:32:03.225Z,14.43
2023-04-01T11:33:03.237Z,14.33
2023-04-01T11:34:03.173Z,14.32
2023-04-01T11:35:03.153Z,14.29
2023-04-01T11:36:03.125Z,14.28
2023-04-01T11:37:03.118Z,14.26
2023-04-01T11:38:03.120Z,14.26
2023-04-01T11:39:03.118Z,14.29
2023-04-01T11:40:03.078Z,14.32
2023-04-01T11:41:03.107Z,14.33
2023-04-01T11:42:03.066Z,14.37
2023-04-01T11:43:03.065Z,14.41
2023-04-01T11:44:03.027Z,14.40
2023-04-01T11:45:03.021Z,14.41
2023-04-01T11:46:03.034Z,14.41
2023-04-01T11:47:03.010Z,14.40
2023-04-01T11:48:03.059Z,14.40
2023-04-01T11:49:02.975Z,14.43
2023-04-01T11:50:02.960Z,14.44
2023-04-01T11:51:02.930Z,14.44
2023-04-01T11:52:02.903Z,14.43
2023-04-01T11:53:02.916Z,14.41
2023-04-01T11:54:02.914Z,14.33
2023-04-01T11:55:02.887Z,14.28
2023-04-01T11:56:02.864Z,14.28
2023-04-01T11:57:02.909Z,14.30
2023-04-01T11:58:02.840Z,14.32
2023-04-01T11:59:02.865Z,14.33
2023-04-01T12:00:02.829Z,14.35
2023-04-01T12:01:02.796Z,14.36
2023-04-01T12:02:02.821Z,14.36
2023-04-01T12:03:02.920Z,14.36
2023-04-01T12:04:03.016Z,14.36
2023-04-01T12:05:02.776Z,14.35
2023-04-01T12:06:02.740Z,14.30
2023-04-01T12:07:02.714Z,14.25
2023-04-01T12:08:02.708Z,14.14
2023-04-01T12:09:02.705Z,14.04
2023-04-01T12:10:02.733Z,13.92
2023-04-01T12:11:02.686Z,13.79
2023-04-01T12:12:02.662Z,13.72
2023-04-01T12:13:02.672Z,13.57
2023-04-01T12:14:02.641Z,13.50
2023-04-01T12:15:02.631Z,13.44
2023-04-01T12:16:02.693Z,13.33
2023-04-01T12:17:02.607Z,13.28
2023-04-01T12:18:02.613Z,13.25
2023-04-01T12:19:02.578Z,13.27
2023-04-01T12:20:02.642Z,13.30
2023-04-01T12:21:02.548Z,13.30
2023-04-01T12:22:02.553Z,13.28
2023-04-01T12:23:02.510Z,13.27
2023-04-01T12:24:02.503Z,13.28
2023-04-01T12:25:02.491Z,13.28
2023-04-01T12:26:02.483Z,13.28
2023-04-01T12:27:02.575Z,13.27
2023-04-01T12:28:02.440Z,13.28
2023-04-01T12:29:02.455Z,13.27
2023-04-01T12:30:02.424Z,13.30
2023-04-01T12:31:02.462Z,13.27
2023-04-01T12:32:02.445Z,13.25
2023-04-01T12:33:02.404Z,13.27
2023-04-01T12:34:02.388Z,13.27
2023-04-01T12:35:02.386Z,13.28
2023-04-01T12:36:02.399Z,13.31
2023-04-01T12:37:02.347Z,13.35
2023-04-01T12:38:02.307Z,13.33
2023-04-01T12:39:02.281Z,13.39
2023-04-01T12:40:02.288Z,13.42
2023-04-01T12:41:02.290Z,13.42
2023-04-01T12:42:02.268Z,13.46
2023-04-01T12:43:02.241Z,13.50
2023-04-01T12:44:02.254Z,13.53
2023-04-01T12:45:02.216Z,13.54
2023-04-01T12:46:02.304Z,13.60
2023-04-01T12:47:02.224Z,13.68
2023-04-01T12:48:02.245Z,13.72
2023-04-01T12:49:02.166Z,13.74
2023-04-01T12:50:02.193Z,13.77
2023-04-01T12:51:02.153Z,13.81
2023-04-01T12:52:02.140Z,13.87
2023-04-01T12:53:02.113Z,13.92
2023-04-01T12:54:02.101Z,13.93
2023-04-01T12:55:02.114Z,13.96
2023-04-01T12:56:02.106Z,13.95
2023-04-01T12:57:02.084Z,13.92
2023-04-01T12:58:02.065Z,13.89
2023-04-01T12:59:02.052Z,13.85
2023-04-01T13:00:02.067Z,13.83
2023-04-01T13:01:02.072Z,13.81
2023-04-01T13:02:01.992Z,13.77
2023-04-01T13:03:02.014Z,13.75
2023-04-01T13:04:02.053Z,13.74
2023-04-01T13:05:01.973Z,13.75
2023-04-01T13:06:01.971Z,13.72
2023-04-01T13:07:01.953Z,13.71
2023-04-01T13:08:01.927Z,13.71
2023-04-01T13:09:01.929Z,13.67
2023-04-01T13:10:01.932Z,13.59